createdAt,value
2023-02-16T00:00:29.215Z,583.00
2023-02-16T00:04:39.767Z,583.40
2023-02-16T00:08:34.346Z,541.60
2023-02-16T00:12:39.256Z,551.00
2023-02-16T00:16:28.952Z,571.40
2023-02-16T00:20:38.195Z,545.20
2023-02-16T00:24:58.620Z,539.10
2023-02-16T00:35:55.039Z,456.20
2023-02-16T00:40:18.833Z,475.10
2023-02-16T00:44:16.726Z,397.30
2023-02-16T00:48:32.990Z,392.70
2023-02-16T00:53:09.396Z,475.10
2023-02-16T00:57:36.829Z,431.40
2023-02-16T01:01:51.309Z,425.50
2023-02-16T01:06:17.824Z,331.20
2023-02-16T01:10:43.940Z,403.90
2023-02-16T01:15:11.778Z,417.10
2023-02-16T01:19:39.319Z,382.40
2023-02-16T01:24:06.769Z,415.20
2023-02-16T01:28:15.533Z,405.20
2023-02-16T01:32:43.229Z,365.30
2023-02-16T01:37:14.062Z,282.60
2023-02-16T01:41:44.755Z,263.00
2023-02-16T01:45:55.053Z,338.40
2023-02-16T01:50:22.590Z,307.70
2023-02-16T01:54:55.778Z,248.70
2023-02-16T01:59:22.120Z,222.20
2023-02-16T02:03:19.784Z,255.10
2023-02-16T02:07:36.177Z,280.50
2023-02-16T02:11:37.911Z,273.50
2023-02-16T02:15:27.125Z,296.30
2023-02-16T02:19:38.641Z,282.30
2023-02-16T02:23:58.305Z,221.50
2023-02-16T02:27:47.303Z,240.20
2023-02-16T02:32:18.987Z,173.50
2023-02-16T02:36:48.363Z,159.80
2023-02-16T02:41:07.360Z,130.90
2023-02-16T02:44:57.984Z,137.90
2023-02-16T02:48:47.579Z,129.90
2023-02-16T02:52:44.504Z,130.20
2023-02-16T02:56:34.955Z,118.00
2023-02-16T03:00:28.850Z,118.80
2023-02-16T03:04:35.957Z,117.80
2023-02-16T03:08:24.858Z,111.70
2023-02-16T03:12:14.393Z,106.20
2023-02-16T03:16:22.620Z,106.20
2023-02-16T03:20:10.870Z,111.20
2023-02-16T03:24:06.866Z,106.90
2023-02-16T03:27:53.603Z,94.70
2023-02-16T03:31:51.341Z,93.60
2023-02-16T03:35:43.419Z,93.70
2023-02-16T03:39:31.517Z,99.30
2023-02-16T03:43:29.847Z,92.20
2023-02-16T03:47:26.004Z,96.00
2023-02-16T03:51:15.628Z,93.20
2023-02-16T03:55:03.849Z,94.30
2023-02-16T03:58:55.565Z,93.10
2023-02-16T04:02:59.138Z,91.90
2023-02-16T04:07:31.790Z,97.30
2023-02-16T04:12:06.362Z,91.70
2023-02-16T04:16:33.179Z,93.90
2023-02-16T04:21:10.259Z,97.00
2023-02-16T04:25:39.101Z,94.60
2023-02-16T04:30:06.721Z,89.90
2023-02-16T04:34:34.496Z,90.90
2023-02-16T04:39:02.185Z,94.50
2023-02-16T04:43:29.838Z,91.80
2023-02-16T04:48:09.384Z,90.00
2023-02-16T04:52:42.793Z,92.70
2023-02-16T04:57:10.242Z,97.80
2023-02-16T05:01:38.415Z,86.00
2023-02-16T05:06:05.976Z,89.90
2023-02-16T05:10:37.780Z,94.70
2023-02-16T05:15:06.557Z,96.50
2023-02-16T05:19:34.045Z,83.70
2023-02-16T05:24:02.788Z,90.30
2023-02-16T05:28:34.821Z,87.50
2023-02-16T05:33:02.419Z,87.50
2023-02-16T05:37:30.633Z,87.00
2023-02-16T05:41:58.256Z,88.90
2023-02-16T05:46:43.737Z,90.10
2023-02-16T05:51:17.091Z,86.30
2023-02-16T05:55:53.904Z,84.80
2023-02-16T06:00:27.493Z,88.30
2023-02-16T06:04:57.542Z,95.40
2023-02-16T06:09:25.252Z,83.60
2023-02-16T06:13:53.432Z,91.00
2023-02-16T06:18:25.754Z,92.10
2023-02-16T06:23:04.716Z,90.90
2023-02-16T06:27:32.540Z,87.90
2023-02-16T06:32:02.884Z,86.40
2023-02-16T06:36:44.620Z,92.80
2023-02-16T06:41:17.002Z,91.40
2023-02-16T06:45:50.419Z,83.70
2023-02-16T06:50:27.521Z,89.40
2023-02-16T06:54:52.569Z,93.00
2023-02-16T06:58:40.155Z,93.00
2023-02-16T07:02:20.848Z,90.10
2023-02-16T07:05:43.720Z,86.20
2023-02-16T07:09:32.035Z,79.10
2023-02-16T07:12:54.272Z,83.00
2023-02-16T07:17:08.061Z,81.90
2023-02-16T07:25:58.501Z,84.70
2023-02-16T07:30:08.620Z,73.90
2023-02-16T07:38:33.258Z,78.60
2023-02-16T07:42:20.211Z,73.80
2023-02-16T07:46:07.370Z,70.80
2023-02-16T07:49:44.997Z,76.00
2023-02-16T07:53:30.024Z,74.70
2023-02-16T07:57:20.115Z,70.00
2023-02-16T08:01:08.111Z,72.80
2023-02-16T08:04:55.366Z,69.70
2023-02-16T08:08:48.244Z,67.40
2023-02-16T08:13:07.959Z,68.90
2023-02-16T08:16:59.499Z,68.70
2023-02-16T08:21:02.707Z,61.70
2023-02-16T08:24:53.743Z,66.40
2023-02-16T08:28:37.731Z,67.60
2023-02-16T08:32:25.652Z,63.30
2023-02-16T08:36:13.324Z,67.40
2023-02-16T08:40:01.128Z,65.10
2023-02-16T08:43:41.393Z,63.10
2023-02-16T08:47:27.922Z,62.40
2023-02-16T08:51:15.597Z,63.70
2023-02-16T08:54:45.610Z,56.80
2023-02-16T08:58:34.839Z,60.00
2023-02-16T09:02:00.963Z,63.40
2023-02-16T09:05:50.321Z,57.20
2023-02-16T09:09:38.030Z,60.00
2023-02-16T09:13:15.742Z,60.20
2023-02-16T09:17:07.468Z,58.90
2023-02-16T09:20:55.136Z,59.00
2023-02-16T09:24:43.434Z,60.00
2023-02-16T09:28:30.983Z,58.60
2023-02-16T09:32:19.750Z,56.60
2023-02-16T09:36:07.467Z,62.00
2023-02-16T09:39:45.375Z,59.90
2023-02-16T09:43:43.579Z,57.40
2023-02-16T09:46:52.196Z,59.20
2023-02-16T09:50:12.509Z,63.10
2023-02-16T09:54:03.196Z,55.10
2023-02-16T09:58:02.835Z,59.10
2023-02-16T10:01:58.504Z,60.70
2023-02-16T10:05:52.260Z,52.30
2023-02-16T10:09:37.363Z,53.70
2023-02-16T10:13:25.995Z,55.50
2023-02-16T10:17:13.600Z,54.50
2023-02-16T10:21:01.881Z,54.30
2023-02-16T10:24:52.728Z,53.10
2023-02-16T10:28:40.580Z,54.80
2023-02-16T10:32:23.439Z,52.60
2023-02-16T10:36:28.952Z,46.10
2023-02-16T10:40:25.092Z,50.40
2023-02-16T10:44:18.590Z,49.20
2023-02-16T10:48:15.797Z,51.90
2023-02-16T10:52:03.900Z,48.00
2023-02-16T10:55:51.897Z,47.90
2023-02-16T10:59:40.063Z,49.30
2023-02-16T11:03:30.383Z,49.50
2023-02-16T11:07:18.129Z,49.10
2023-02-16T11:11:15.291Z,48.80
2023-02-16T11:15:04.902Z,51.50
2023-02-16T11:18:52.594Z,46.80
2023-02-16T11:22:42.915Z,48.20
2023-02-16T11:26:33.346Z,47.80
2023-02-16T11:30:14.263Z,47.80
2023-02-16T11:34:02.302Z,51.60
2023-02-16T11:38:06.038Z,48.60
2023-02-16T11:41:54.349Z,49.00
2023-02-16T11:45:43.611Z,46.90
2023-02-16T11:49:31.254Z,49.30
2023-02-16T11:53:28.179Z,46.90
2023-02-16T11:57:11.710Z,51.30
2023-02-16T12:00:59.447Z,50.00
2023-02-16T12:04:54.623Z,47.70
2023-02-16T12:08:54.152Z,48.00
2023-02-16T12:12:56.799Z,48.30
2023-02-16T12:17:08.257Z,50.60
2023-02-16T12:21:17.476Z,48.10
2023-02-16T12:25:03.484Z,54.60
2023-02-16T12:28:54.647Z,48.30
2023-02-16T12:33:06.491Z,52.40
2023-02-16T12:37:00.048Z,50.80
2023-02-16T12:41:06.154Z,50.50
2023-02-16T12:44:57.284Z,52.30
2023-02-16T12:48:39.181Z,53.00
2023-02-16T12:52:27.117Z,52.20
2023-02-16T12:56:29.712Z,52.60
2023-02-16T13:00:17.425Z,55.50
2023-02-16T13:04:21.129Z,57.30
2023-02-16T13:08:20.843Z,61.80
2023-02-16T13:12:14.627Z,61.40
2023-02-16T13:16:30.126Z,59.20
2023-02-16T13:20:18.442Z,60.50
2023-02-16T13:24:31.179Z,63.40
2023-02-16T13:28:18.992Z,60.80
2023-02-16T13:32:17.983Z,60.70
2023-02-16T13:36:11.361Z,65.90
2023-02-16T13:40:14.328Z,69.20
2023-02-16T13:44:10.971Z,64.70
2023-02-16T13:47:59.280Z,67.30
2023-02-16T13:51:43.201Z,65.60
2023-02-16T13:55:31.450Z,63.40
2023-02-16T13:59:13.900Z,67.10
2023-02-16T14:03:02.161Z,65.50
2023-02-16T14:06:54.706Z,65.20
2023-02-16T14:10:40.073Z,65.90
2023-02-16T14:14:28.564Z,67.30
2023-02-16T14:18:16.589Z,63.00
2023-02-16T14:22:05.274Z,66.80
2023-02-16T14:25:59.792Z,66.00
2023-02-16T14:30:13.364Z,65.20
2023-02-16T14:34:07.599Z,68.90
2023-02-16T14:38:07.362Z,65.70
2023-02-16T14:42:03.908Z,68.10
2023-02-16T14:46:07.879Z,68.20
2023-02-16T14:50:13.332Z,67.70
2023-02-16T14:54:19.035Z,65.40
2023-02-16T15:01:51.675Z,67.20
2023-02-16T15:05:56.213Z,64.20
2023-02-16T15:09:36.784Z,62.00
2023-02-16T15:13:28.475Z,64.00
2023-02-16T15:17:16.684Z,64.50
2023-02-16T15:21:02.883Z,71.00
2023-02-16T15:24:50.684Z,73.90
2023-02-16T15:28:44.378Z,63.00
2023-02-16T15:32:32.589Z,69.70
2023-02-16T15:36:10.507Z,66.90
2023-02-16T15:40:24.384Z,66.70
2023-02-16T15:44:32.478Z,66.80
2023-02-16T15:48:23.552Z,67.20
2023-02-16T15:52:13.821Z,68.00
2023-02-16T15:56:01.677Z,66.60
2023-02-16T16:00:07.555Z,62.90
2023-02-16T16:04:01.981Z,65.20
2023-02-16T16:07:50.012Z,67.00
2023-02-16T16:11:42.095Z,65.50
2023-02-16T16:15:08.977Z,67.90
2023-02-16T16:18:37.938Z,78.00
2023-02-16T16:22:28.744Z,81.10
2023-02-16T16:26:29.669Z,80.50
2023-02-16T16:30:31.841Z,77.10
2023-02-16T16:34:34.081Z,65.60
2023-02-16T16:38:23.920Z,67.50
2023-02-16T16:41:56.139Z,71.40
2023-02-16T16:46:07.311Z,69.00
2023-02-16T16:49:57.008Z,75.60
2023-02-16T16:53:45.827Z,80.00
2023-02-16T16:57:37.318Z,77.20
2023-02-16T17:01:19.261Z,77.40
2023-02-16T17:05:08.033Z,75.20
2023-02-16T17:08:56.905Z,74.50
2023-02-16T17:12:46.787Z,77.90
2023-02-16T17:16:38.196Z,73.30
2023-02-16T17:20:15.996Z,83.20
2023-02-16T17:24:05.179Z,78.80
2023-02-16T17:27:54.426Z,84.10
2023-02-16T17:31:45.642Z,94.20
2023-02-16T17:35:03.593Z,101.30
2023-02-16T17:38:51.233Z,101.00
2023-02-16T17:42:41.253Z,98.50
2023-02-16T17:46:24.387Z,99.10
2023-02-16T17:50:13.680Z,92.00
2023-02-16T17:54:01.893Z,94.60
2023-02-16T17:57:50.562Z,75.20
2023-02-16T18:01:40.758Z,80.20
2023-02-16T18:05:29.508Z,81.50
2023-02-16T18:09:18.605Z,80.00
2023-02-16T18:13:07.687Z,85.90
2023-02-16T18:16:49.543Z,85.90
2023-02-16T18:20:37.943Z,88.40
2023-02-16T18:24:08.135Z,86.30
2023-02-16T18:27:58.660Z,88.40
2023-02-16T18:31:48.306Z,87.90
2023-02-16T18:35:38.421Z,88.40
2023-02-16T18:39:27.774Z,88.20
2023-02-16T18:43:18.327Z,89.20
2023-02-16T18:47:01.430Z,94.90
2023-02-16T18:50:38.775Z,88.00
2023-02-16T18:54:29.631Z,82.80
2023-02-16T18:58:14.138Z,81.70
2023-02-16T19:02:08.520Z,80.60
2023-02-16T19:05:58.155Z,80.10
2023-02-16T19:09:48.123Z,83.80
2023-02-16T19:13:37.779Z,88.00
2023-02-16T19:20:58.202Z,82.60
2023-02-16T19:24:50.297Z,77.10
2023-02-16T19:28:25.274Z,79.60
2023-02-16T19:32:12.890Z,78.90
2023-02-16T19:36:05.745Z,75.70
2023-02-16T19:40:26.950Z,76.40
2023-02-16T19:44:04.198Z,81.90
2023-02-16T19:47:53.610Z,80.40
2023-02-16T19:51:43.560Z,75.90
2023-02-16T19:55:33.287Z,75.50
2023-02-16T19:59:10.061Z,70.30
2023-02-16T20:02:54.819Z,66.50
2023-02-16T20:06:54.629Z,70.50
2023-02-16T20:10:44.258Z,68.40
2023-02-16T20:14:26.276Z,69.10
2023-02-16T20:18:00.134Z,61.20
2023-02-16T20:22:04.747Z,70.60
2023-02-16T20:25:45.390Z,71.40
2023-02-16T20:29:32.853Z,68.10
2023-02-16T20:33:25.787Z,69.00
2023-02-16T20:37:17.317Z,68.90
2023-02-16T20:41:05.846Z,70.20
2023-02-16T20:48:35.038Z,68.40
2023-02-16T20:52:17.300Z,62.70
2023-02-16T21:00:28.959Z,66.60
2023-02-16T21:04:18.140Z,69.30
2023-02-16T21:08:11.440Z,66.00
2023-02-16T21:11:52.615Z,65.00
2023-02-16T21:15:37.294Z,66.10
2023-02-16T21:19:26.906Z,66.10
2023-02-16T21:23:17.271Z,71.70
2023-02-16T21:26:47.477Z,66.50
2023-02-16T21:30:41.332Z,66.10
2023-02-16T21:34:22.533Z,70.20
2023-02-16T21:38:11.701Z,68.90
2023-02-16T21:42:07.084Z,70.40
2023-02-16T21:45:57.387Z,65.80
2023-02-16T21:49:48.278Z,71.80
2023-02-16T21:53:30.990Z,68.50
2023-02-16T21:57:21.923Z,66.90
2023-02-16T22:01:09.186Z,61.30
2023-02-16T22:04:57.467Z,64.40
2023-02-16T22:08:45.197Z,59.40
2023-02-16T22:12:34.630Z,68.80
2023-02-16T22:16:24.023Z,66.10
2023-02-16T22:23:41.124Z,60.50
2023-02-16T22:28:12.669Z,63.40
2023-02-16T22:32:45.027Z,62.20
2023-02-16T22:37:22.181Z,60.60
2023-02-16T22:41:52.737Z,62.00
2023-02-16T22:46:22.518Z,63.70
2023-02-16T22:50:53.319Z,60.60
2023-02-16T22:55:23.362Z,59.40
2023-02-16T22:59:52.963Z,57.90
2023-02-16T23:04:24.162Z,62.20
2023-02-16T23:08:53.683Z,65.40
2023-02-16T23:13:23.463Z,58.60
2023-02-16T23:17:53.461Z,62.50
2023-02-16T23:22:25.604Z,68.10
2023-02-16T23:26:55.545Z,61.60
2023-02-16T23:31:25.060Z,59.40
2023-02-16T23:35:54.819Z,60.30
2023-02-16T23:40:24.484Z,60.40
2023-02-16T23:44:53.957Z,60.20
2023-02-16T23:49:23.624Z,58.00
2023-02-16T23:53:53.021Z,62.50
2023-02-16T23:58:22.387Z,58.70
